createdAt,value
2018-08-19T07:01:44.216Z,24.11
2018-08-19T07:06:48.004Z,23.01
2018-08-19T07:12:00.656Z,22.88
2018-08-19T07:17:04.543Z,23.06
2018-08-19T07:22:09.379Z,22.94
2018-08-19T07:27:13.883Z,22.93
2018-08-19T07:32:17.504Z,22.98
2018-08-19T07:37:21.291Z,22.93
2018-08-19T07:42:25.057Z,22.96
2018-08-19T07:47:28.679Z,22.99
2018-08-19T07:52:33.453Z,23.09
2018-08-19T07:57:40.332Z,23.12
2018-08-19T08:02:43.994Z,23.32
2018-08-19T08:07:49.343Z,23.55
2018-08-19T08:13:01.118Z,23.43
2018-08-19T08:18:04.813Z,23.57
2018-08-19T08:23:26.753Z,23.55
2018-08-19T08:28:31.352Z,23.58
2018-08-19T08:33:37.554Z,23.77
2018-08-19T08:38:45.320Z,23.79
2018-08-19T08:43:49.081Z,23.89
2018-08-19T08:48:53.257Z,24.00
2018-08-19T08:54:01.471Z,24.07
2018-08-19T08:59:05.389Z,24.12
2018-08-19T09:04:09.622Z,24.11
2018-08-19T09:09:23.036Z,24.29
2018-08-19T09:14:30.739Z,24.34
2018-08-19T09:19:34.537Z,24.47
2018-08-19T09:24:39.387Z,24.52
2018-08-19T09:29:43.310Z,24.61
2018-08-19T09:35:18.678Z,24.71
2018-08-19T09:40:22.462Z,24.73
2018-08-19T09:45:26.590Z,24.78
2018-08-19T09:50:33.312Z,24.89
2018-08-19T09:55:41.278Z,24.92
2018-08-19T10:00:50.271Z,24.91
2018-08-19T10:05:54.038Z,24.94
2018-08-19T10:10:57.639Z,25.05
2018-08-19T10:16:01.371Z,25.08
2018-08-19T10:21:14.144Z,25.08
2018-08-19T10:26:17.806Z,25.08
2018-08-19T10:31:21.469Z,25.12
2018-08-19T10:36:25.884Z,25.14
2018-08-19T10:41:29.803Z,25.17
2018-08-19T10:46:34.079Z,25.20
2018-08-19T10:51:44.109Z,25.17
2018-08-19T10:56:48.085Z,25.21
2018-08-19T11:01:52.531Z,25.24
2018-08-19T11:06:58.650Z,25.23
2018-08-19T11:12:02.471Z,25.19
2018-08-19T11:17:08.042Z,25.27
2018-08-19T11:22:11.718Z,25.32
2018-08-19T11:27:15.466Z,25.35
2018-08-19T11:32:32.877Z,25.26
2018-08-19T11:37:39.441Z,25.29
2018-08-19T11:42:50.224Z,25.30
2018-08-19T11:53:09.762Z,25.39
2018-08-19T11:58:27.558Z,25.40
2018-08-19T12:03:44.747Z,25.44
2018-08-19T12:08:49.336Z,25.42
2018-08-19T12:14:05.609Z,25.43
2018-08-19T12:19:14.633Z,25.51
2018-08-19T12:24:38.355Z,25.53
2018-08-19T12:29:43.395Z,25.55
2018-08-19T12:34:55.277Z,25.48
2018-08-19T12:40:13.167Z,25.53
2018-08-19T12:45:18.826Z,25.54
2018-08-19T12:50:22.871Z,25.51
2018-08-19T12:55:26.777Z,25.53
2018-08-19T13:00:30.876Z,25.54
2018-08-19T13:05:36.229Z,25.55
2018-08-19T13:10:47.140Z,25.56
2018-08-19T13:16:13.642Z,25.55
2018-08-19T13:21:18.771Z,25.58
2018-08-19T13:26:22.466Z,25.58
2018-08-19T13:31:31.334Z,25.57
2018-08-19T13:36:34.986Z,25.57
2018-08-19T13:41:40.333Z,25.60
2018-08-19T13:46:48.763Z,25.61
2018-08-19T13:51:52.724Z,25.61
2018-08-19T13:56:56.617Z,25.63
2018-08-19T14:02:00.481Z,25.61
2018-08-19T14:07:04.220Z,25.65
2018-08-19T14:12:07.903Z,25.65
2018-08-19T14:17:11.710Z,25.66
2018-08-19T14:22:15.421Z,25.72
2018-08-19T14:27:19.413Z,25.72
2018-08-19T14:32:31.741Z,25.74
2018-08-19T14:37:36.148Z,25.73
2018-08-19T14:42:40.657Z,25.78
2018-08-19T14:47:45.066Z,25.80
2018-08-19T14:52:48.816Z,25.78
2018-08-19T14:57:52.806Z,25.83
2018-08-19T15:02:56.625Z,25.88
2018-08-19T15:08:06.643Z,25.95
2018-08-19T15:13:10.484Z,26.02
2018-08-19T15:18:14.660Z,26.07
2018-08-19T15:23:21.128Z,26.06
2018-08-19T15:28:24.987Z,26.20
2018-08-19T15:33:28.702Z,26.30
2018-08-19T15:38:32.443Z,26.36
2018-08-19T20:28:26.435Z,26.05
2018-08-19T20:33:30.744Z,26.05
2018-08-19T20:38:34.597Z,26.02
2018-08-19T20:43:38.390Z,26.06
2018-08-19T20:48:42.374Z,26.05
2018-08-19T20:53:46.018Z,26.07
2018-08-19T20:58:49.667Z,26.02
2018-08-19T21:03:53.405Z,26.05
2018-08-19T21:08:57.135Z,26.09
2018-08-19T21:14:00.847Z,26.05
2018-08-19T21:19:04.713Z,26.15
2018-08-19T21:24:08.437Z,26.09
2018-08-19T21:29:12.221Z,26.10
2018-08-19T21:34:15.967Z,26.02
2018-08-19T21:39:19.851Z,26.08
2018-08-19T21:44:23.814Z,26.12
2018-08-19T21:49:27.643Z,26.03
2018-08-19T21:54:31.286Z,25.97
2018-08-19T21:59:34.946Z,26.00
2018-08-19T22:04:38.650Z,26.01
2018-08-19T22:09:42.515Z,25.98
2018-08-19T22:14:46.421Z,25.98
2018-08-19T22:19:50.373Z,26.08
2018-08-19T22:24:54.109Z,26.04
2018-08-19T22:29:57.914Z,26.05
2018-08-19T22:35:01.860Z,26.03
2018-08-19T22:40:05.797Z,26.14
2018-08-19T22:45:09.430Z,26.09
2018-08-19T22:50:13.154Z,26.06
2018-08-19T22:55:16.872Z,26.03
2018-08-19T23:00:23.974Z,26.15
2018-08-19T23:05:27.657Z,26.14
2018-08-19T23:10:31.270Z,26.08
2018-08-19T23:15:39.346Z,26.05
2018-08-19T23:20:43.306Z,26.09
2018-08-19T23:25:46.930Z,26.17
2018-08-19T23:30:50.781Z,26.17
2018-08-19T23:35:54.456Z,26.23
2018-08-19T23:40:58.118Z,26.14
2018-08-19T23:46:01.757Z,26.11
2018-08-19T23:51:05.525Z,26.16
2018-08-19T23:56:09.141Z,26.08
